sensor_id;sensor_type;location;lat;lon;timestamp;pressure;altitude;pressure_sealevel;temperature;humidity
4528;BME280;62320;51.520;6.818;2023-10-19T00:04:25;98999.53;;;12.24;100.00
4528;BME280;62320;51.520;6.818;2023-10-19T00:14:26;98995.78;;;12.31;100.00
4528;BME280;62320;51.520;6.818;2023-10-19T00:24:28;98982.75;;;12.34;100.00
4528;BME280;62320;51.520;6.818;2023-10-19T00:34:32;98965.28;;;12.39;100.00
4528;BME280;62320;51.520;6.818;2023-10-19T00:44:35;98970.22;;;12.45;100.00
4528;BME280;62320;51.520;6.818;2023-10-19T00:54:43;98957.63;;;12.59;100.00
4528;BME280;62320;51.520;6.818;2023-10-19T01:04:57;98954.06;;;12.62;100.00
4528;BME280;62320;51.520;6.818;2023-10-19T01:15:14;98955.13;;;12.79;100.00
4528;BME280;62320;51.520;6.818;2023-10-19T01:25:20;98942.06;;;12.82;100.00
4528;BME280;62320;51.520;6.818;2023-10-19T01:35:35;98948.88;;;12.85;100.00
4528;BME280;62320;51.520;6.818;2023-10-19T01:45:56;98946.72;;;12.96;100.00
4528;BME280;62320;51.520;6.818;2023-10-19T01:55:58;98942.38;;;12.97;100.00
4528;BME280;62320;51.520;6.818;2023-10-19T02:06:00;98933.41;;;13.05;100.00
4528;BME280;62320;51.520;6.818;2023-10-19T02:16:11;98917.50;;;13.14;100.00
4528;BME280;62320;51.520;6.818;2023-10-19T02:26:12;98912.97;;;13.19;100.00
4528;BME280;62320;51.520;6.818;2023-10-19T02:36:15;98902.84;;;13.33;100.00
4528;BME280;62320;51.520;6.818;2023-10-19T02:46:17;98900.91;;;13.38;100.00
4528;BME280;62320;51.520;6.818;2023-10-19T02:56:19;98895.41;;;13.46;100.00
4528;BME280;62320;51.520;6.818;2023-10-19T03:06:21;98893.59;;;13.48;100.00
4528;BME280;62320;51.520;6.818;2023-10-19T03:16:23;98896.84;;;13.53;100.00
4528;BME280;62320;51.520;6.818;2023-10-19T03:26:25;98889.84;;;13.55;100.00
4528;BME280;62320;51.520;6.818;2023-10-19T03:36:32;98875.97;;;13.56;100.00
4528;BME280;62320;51.520;6.818;2023-10-19T03:46:36;98868.88;;;13.59;100.00
4528;BME280;62320;51.520;6.818;2023-10-19T03:56:39;98870.31;;;13.67;100.00
4528;BME280;62320;51.520;6.818;2023-10-19T04:06:41;98859.00;;;13.68;100.00
4528;BME280;62320;51.520;6.818;2023-10-19T04:16:48;98852.56;;;13.76;100.00
4528;BME280;62320;51.520;6.818;2023-10-19T04:26:50;98838.94;;;13.71;100.00
4528;BME280;62320;51.520;6.818;2023-10-19T04:36:52;98840.38;;;13.78;100.00
4528;BME280;62320;51.520;6.818;2023-10-19T04:46:53;98835.09;;;13.80;100.00
4528;BME280;62320;51.520;6.818;2023-10-19T04:56:55;98846.41;;;13.79;100.00
4528;BME280;62320;51.520;6.818;2023-10-19T05:06:57;98854.13;;;13.80;100.00
4528;BME280;62320;51.520;6.818;2023-10-19T05:16:58;98854.56;;;13.90;100.00
4528;BME280;62320;51.520;6.818;2023-10-19T05:27:00;98855.56;;;13.87;100.00
4528;BME280;62320;51.520;6.818;2023-10-19T05:37:01;98862.00;;;13.97;100.00
4528;BME280;62320;51.520;6.818;2023-10-19T05:47:06;98857.28;;;13.87;100.00
4528;BME280;62320;51.520;6.818;2023-10-19T05:57:09;98868.78;;;13.81;100.00
4528;BME280;62320;51.520;6.818;2023-10-19T06:07:10;98873.78;;;13.86;100.00
4528;BME280;62320;51.520;6.818;2023-10-19T06:17:12;98890.63;;;13.77;100.00
4528;BME280;62320;51.520;6.818;2023-10-19T06:27:21;98891.66;;;13.73;100.00
4528;BME280;62320;51.520;6.818;2023-10-19T06:37:22;98899.25;;;13.78;100.00
4528;BME280;62320;51.520;6.818;2023-10-19T06:47:24;98896.28;;;13.67;100.00
4528;BME280;62320;51.520;6.818;2023-10-19T06:57:25;98913.34;;;13.72;100.00
4528;BME280;62320;51.520;6.818;2023-10-19T07:07:26;98923.13;;;13.86;100.00
4528;BME280;62320;51.520;6.818;2023-10-19T07:17:28;98914.53;;;13.85;100.00
4528;BME280;62320;51.520;6.818;2023-10-19T07:27:29;98922.25;;;13.87;100.00
4528;BME280;62320;51.520;6.818;2023-10-19T07:37:38;98928.59;;;14.00;100.00
4528;BME280;62320;51.520;6.818;2023-10-19T07:47:41;98929.94;;;14.08;100.00
4528;BME280;62320;51.520;6.818;2023-10-19T07:57:43;98932.16;;;14.17;100.00
4528;BME280;62320;51.520;6.818;2023-10-19T08:07:46;98919.66;;;14.25;100.00
4528;BME280;62320;51.520;6.818;2023-10-19T08:17:51;98914.22;;;14.32;100.00
4528;BME280;62320;51.520;6.818;2023-10-19T08:27:55;98918.34;;;14.56;100.00
4528;BME280;62320;51.520;6.818;2023-10-19T08:37:59;98916.00;;;14.68;100.00
4528;BME280;62320;51.520;6.818;2023-10-19T08:48:01;98914.84;;;15.11;100.00
4528;BME280;62320;51.520;6.818;2023-10-19T08:58:03;98905.41;;;15.09;100.00
4528;BME280;62320;51.520;6.818;2023-10-19T09:08:08;98899.75;;;15.18;100.00
4528;BME280;62320;51.520;6.818;2023-10-19T09:18:15;98897.34;;;15.32;100.00
4528;BME280;62320;51.520;6.818;2023-10-19T09:28:17;98888.19;;;15.59;100.00
4528;BME280;62320;51.520;6.818;2023-10-19T09:38:18;98891.03;;;15.72;100.00
4528;BME280;62320;51.520;6.818;2023-10-19T09:48:23;98879.72;;;16.05;100.00
4528;BME280;62320;51.520;6.818;2023-10-19T09:58:27;98867.75;;;16.50;100.00
4528;BME280;62320;51.520;6.818;2023-10-19T10:08:33;98874.28;;;16.58;100.00
4528;BME280;62320;51.520;6.818;2023-10-19T10:18:35;98871.50;;;16.77;100.00
4528;BME280;62320;51.520;6.818;2023-10-19T10:28:38;98870.13;;;17.17;100.00
4528;BME280;62320;51.520;6.818;2023-10-19T10:38:40;98860.19;;;17.07;100.00
4528;BME280;62320;51.520;6.818;2023-10-19T10:48:42;98844.97;;;17.30;100.00
4528;BME280;62320;51.520;6.818;2023-10-19T10:58:44;98845.25;;;17.25;100.00
4528;BME280;62320;51.520;6.818;2023-10-19T11:08:46;98832.28;;;17.38;100.00
4528;BME280;62320;51.520;6.818;2023-10-19T11:18:48;98831.50;;;17.95;100.00
4528;BME280;62320;51.520;6.818;2023-10-19T11:28:58;98816.72;;;18.08;100.00
4528;BME280;62320;51.520;6.818;2023-10-19T11:39:00;98803.84;;;18.05;99.69
4528;BME280;62320;51.520;6.818;2023-10-19T11:49:02;98786.66;;;18.15;98.82
4528;BME280;62320;51.520;6.818;2023-10-19T11:59:04;98772.09;;;18.11;97.64
4528;BME280;62320;51.520;6.818;2023-10-19T12:09:06;98796.66;;;18.09;98.41
4528;BME280;62320;51.520;6.818;2023-10-19T12:19:16;98784.59;;;18.20;97.65
4528;BME280;62320;51.520;6.818;2023-10-19T12:29:21;98785.06;;;18.13;99.07
4528;BME280;62320;51.520;6.818;2023-10-19T12:39:23;98790.19;;;18.28;96.83
4528;BME280;62320;51.520;6.818;2023-10-19T12:49:41;98781.41;;;18.29;96.29
4528;BME280;62320;51.520;6.818;2023-10-19T12:59:42;98785.72;;;18.16;98.08
4528;BME280;62320;51.520;6.818;2023-10-19T13:09:45;98769.91;;;18.18;98.76
4528;BME280;62320;51.520;6.818;2023-10-19T13:19:46;98764.06;;;18.14;99.29
4528;BME280;62320;51.520;6.818;2023-10-19T13:29:48;98761.34;;;18.16;99.73
4528;BME280;62320;51.520;6.818;2023-10-19T13:39:49;98756.22;;;18.14;100.00
4528;BME280;62320;51.520;6.818;2023-10-19T13:49:51;98760.88;;;18.09;100.00
4528;BME280;62320;51.520;6.818;2023-10-19T13:59:52;98755.66;;;18.09;100.00
4528;BME280;62320;51.520;6.818;2023-10-19T14:09:54;98735.56;;;18.10;100.00
4528;BME280;62320;51.520;6.818;2023-10-19T14:19:56;98717.84;;;18.01;100.00
4528;BME280;62320;51.520;6.818;2023-10-19T14:29:58;98706.66;;;17.99;100.00
4528;BME280;62320;51.520;6.818;2023-10-19T14:39:59;98692.72;;;17.98;100.00
4528;BME280;62320;51.520;6.818;2023-10-19T14:50:01;98674.03;;;17.90;100.00
4528;BME280;62320;51.520;6.818;2023-10-19T15:00:07;98644.94;;;17.82;100.00
4528;BME280;62320;51.520;6.818;2023-10-19T15:10:29;98630.22;;;17.67;100.00
4528;BME280;62320;51.520;6.818;2023-10-19T15:20:31;98632.47;;;17.59;100.00
4528;BME280;62320;51.520;6.818;2023-10-19T15:30:33;98619.78;;;17.53;100.00
4528;BME280;62320;51.520;6.818;2023-10-19T15:40:35;98606.13;;;17.48;100.00
4528;BME280;62320;51.520;6.818;2023-10-19T15:50:40;98606.31;;;17.45;100.00
4528;BME280;62320;51.520;6.818;2023-10-19T16:00:44;98596.38;;;17.37;100.00
4528;BME280;62320;51.520;6.818;2023-10-19T16:10:46;98568.09;;;17.30;100.00
4528;BME280;62320;51.520;6.818;2023-10-19T16:20:47;98553.00;;;17.21;100.00
4528;BME280;62320;51.520;6.818;2023-10-19T16:30:49;98574.81;;;17.20;100.00
4528;BME280;62320;51.520;6.818;2023-10-19T16:40:58;98558.06;;;17.09;100.00
4528;BME280;62320;51.520;6.818;2023-10-19T16:51:01;98561.22;;;17.00;100.00
4528;BME280;62320;51.520;6.818;2023-10-19T17:01:06;98573.88;;;16.92;100.00
4528;BME280;62320;51.520;6.818;2023-10-19T17:11:11;98577.53;;;16.76;100.00
4528;BME280;62320;51.520;6.818;2023-10-19T17:21:13;98579.19;;;16.63;100.00
4528;BME280;62320;51.520;6.818;2023-10-19T17:31:14;98563.13;;;16.55;100.00
4528;BME280;62320;51.520;6.818;2023-10-19T17:41:17;98547.78;;;16.34;100.00
4528;BME280;62320;51.520;6.818;2023-10-19T17:51:19;98540.78;;;16.21;100.00
4528;BME280;62320;51.520;6.818;2023-10-19T18:01:22;98532.75;;;16.10;100.00
4528;BME280;62320;51.520;6.818;2023-10-19T18:11:24;98530.94;;;15.96;100.00
4528;BME280;62320;51.520;6.818;2023-10-19T18:21:25;98553.94;;;15.74;100.00
4528;BME280;62320;51.520;6.818;2023-10-19T18:31:27;98530.47;;;15.58;100.00
4528;BME280;62320;51.520;6.818;2023-10-19T18:41:29;98519.19;;;15.42;100.00
4528;BME280;62320;51.520;6.818;2023-10-19T18:51:32;98508.66;;;15.45;100.00
4528;BME280;62320;51.520;6.818;2023-10-19T19:01:34;98508.38;;;15.34;100.00
4528;BME280;62320;51.520;6.818;2023-10-19T19:11:36;98486.78;;;15.32;100.00
4528;BME280;62320;51.520;6.818;2023-10-19T19:21:37;98474.88;;;15.28;100.00
4528;BME280;62320;51.520;6.818;2023-10-19T19:31:42;98460.31;;;15.24;100.00
4528;BME280;62320;51.520;6.818;2023-10-19T19:41:43;98471.78;;;15.22;100.00
4528;BME280;62320;51.520;6.818;2023-10-19T19:51:46;98466.97;;;15.14;100.00
4528;BME280;62320;51.520;6.818;2023-10-19T20:01:48;98487.44;;;15.05;100.00
4528;BME280;62320;51.520;6.818;2023-10-19T20:11:51;98467.56;;;15.04;100.00
4528;BME280;62320;51.520;6.818;2023-10-19T20:21:53;98465.38;;;14.96;100.00
4528;BME280;62320;51.520;6.818;2023-10-19T20:31:54;98464.03;;;14.89;100.00
4528;BME280;62320;51.520;6.818;2023-10-19T20:41:56;98444.38;;;14.83;100.00
4528;BME280;62320;51.520;6.818;2023-10-19T20:51:57;98426.00;;;14.86;100.00
4528;BME280;62320;51.520;6.818;2023-10-19T21:01:59;98405.19;;;14.86;100.00
4528;BME280;62320;51.520;6.818;2023-10-19T21:12:01;98368.94;;;14.83;100.00
4528;BME280;62320;51.520;6.818;2023-10-19T21:22:03;98338.75;;;14.81;100.00
4528;BME280;62320;51.520;6.818;2023-10-19T21:32:05;98357.22;;;14.76;100.00
4528;BME280;62320;51.520;6.818;2023-10-19T21:42:06;98332.97;;;14.76;100.00
4528;BME280;62320;51.520;6.818;2023-10-19T21:52:09;98328.91;;;14.70;100.00
4528;BME280;62320;51.520;6.818;2023-10-19T22:02:11;98331.03;;;14.64;100.00
4528;BME280;62320;51.520;6.818;2023-10-19T22:12:12;98306.03;;;14.61;100.00
4528;BME280;62320;51.520;6.818;2023-10-19T22:22:18;98320.28;;;14.54;100.00
4528;BME280;62320;51.520;6.818;2023-10-19T22:32:20;98290.88;;;14.54;100.00
4528;BME280;62320;51.520;6.818;2023-10-19T22:42:23;98273.72;;;14.50;100.00
4528;BME280;62320;51.520;6.818;2023-10-19T22:52:24;98295.47;;;14.49;100.00
4528;BME280;62320;51.520;6.818;2023-10-19T23:02:27;98286.56;;;14.53;100.00
4528;BME280;62320;51.520;6.818;2023-10-19T23:12:29;98273.72;;;14.50;100.00
4528;BME280;62320;51.520;6.818;2023-10-19T23:22:31;98275.59;;;14.48;100.00
4528;BME280;62320;51.520;6.818;2023-10-19T23:32:32;98271.22;;;14.48;100.00
4528;BME280;62320;51.520;6.818;2023-10-19T23:42:34;98258.97;;;14.50;100.00
4528;BME280;62320;51.520;6.818;2023-10-19T23:52:35;98233.13;;;14.47;100.00
